METAR AND TAF INFORMATION
METAR FOR LEBL
ADDS - METARS form results

(1626 UTC 22 April 2018)
Data provider http://aviationweather.gov/adds/metars/
 
METAR text: LEBL 221600Z 22012KT CAVOK 20/11 Q1017 NOSIG
Conditions at: LEBL (BARCELONA AIRPOR, ES) observed 1600 UTC 22 April 2018
Temperature: 20.0°C (68°F)
Dewpoint: 11.0°C (52°F) [RH = 56%]
Pressure (altimeter): 30.03 inches Hg (1017.0 mb)
Winds: from the SW (220 degrees) at 14 MPH (12 knots; 6.2 m/s)
Visibility: 6 or more miles (10+ km)
Ceiling: ceiling and visibility are OK
Clouds: unknown
Weather: no significant weather observed at this time

METAR text: LEBL 221530Z 22009KT CAVOK 21/12 Q1016 NOSIG
Conditions at: LEBL (BARCELONA AIRPOR, ES) observed 1530 UTC 22 April 2018
Temperature: 21.0°C (70°F)
Dewpoint: 12.0°C (54°F) [RH = 56%]
Pressure (altimeter): 30.00 inches Hg (1016.0 mb)
Winds: from the SW (220 degrees) at 10 MPH (9 knots; 4.7 m/s)
Visibility: 6 or more miles (10+ km)
Ceiling: ceiling and visibility are OK
Clouds: unknown
Weather: no significant weather observed at this time

Forecast for: LEBL (BARCELONA AIRPOR, ES)
Text: TAF LEBL 221100Z 2212/2312 22010KT 9999 FEW040 TX22/2212Z TN14/2306Z
Forecast period: 1200 to 2100 UTC 22 April 2018
Forecast type: FROM: standard forecast or significant change
Winds: from the SW (220 degrees) at 12 MPH (10 knots; 5.2 m/s)
Visibility: 6 or more miles (10+ km)
Clouds: few clouds at 4000 feet AGL
Weather: no significant weather forecast for this period
Forecast for: LEBL (BARCELONA AIRPOR, ES)
Text: TAF LEBL 221100Z 2212/2312 22010KT 9999 FEW040 TX22/2212Z TN14/2306Z
Forecast period: 1200 to 2100 UTC 22 April 2018
Forecast type: FROM: standard forecast or significant change
Winds: from the SW (220 degrees) at 12 MPH (10 knots; 5.2 m/s)
Visibility: 6 or more miles (10+ km)
Clouds: few clouds at 4000 feet AGL
Weather: no significant weather forecast for this period
Forecast for: LEBL (BARCELONA AIRPOR, ES)
Text: TAF LEBL 221100Z 2212/2312 22010KT 9999 FEW040 TX22/2212Z TN14/2306Z
Forecast period: 2100 UTC 22 April 2018 to 1200 UTC 23 April 2018
Forecast type: BECOMING: Conditions expected to become as follows by 0000 UTC 23 April 2018
Winds: from the NNW (330 degrees) at 7 MPH (6 knots; 3.1 m/s)
Visibility: 6 or more miles (10+ km)
Clouds: few clouds at 4000 feet AGL
Weather: no significant weather forecast for this period
Forecast for: LEBL (BARCELONA AIRPOR, ES)
Text: TAF LEBL 221100Z 2212/2312 22010KT 9999 FEW040 TX22/2212Z TN14/2306Z
Forecast period: 2100 UTC 22 April 2018 to 1200 UTC 23 April 2018
Forecast type: BECOMING: Conditions expected to become as follows by 0000 UTC 23 April 2018
Winds: from the NNW (330 degrees) at 7 MPH (6 knots; 3.1 m/s)
Visibility: 6 or more miles (10+ km)
Clouds: few clouds at 4000 feet AGL
Weather: no significant weather forecast for this period

 AIRPORT MAP

 RUNWAY INFORMATION
Runway 02 Runway length 8333 ft Runway width 148 ft
Runway elevation 7 ft Runway displaced threshold 131 ft Runway heading 19
Runway 20 Runway length 8333 ft Runway width 148 ft
Runway elevation 12 ft Runway displaced threshold 0 ft Runway heading 199
Runway 07L Runway length 11654 ft Runway width 148 ft
Runway elevation 8 ft Runway displaced threshold 295 ft Runway heading 66
Runway 25R Runway length 11654 ft Runway width 148 ft
Runway elevation 10 ft Runway displaced threshold 0 ft Runway heading 246
Runway 07R Runway length 8727 ft Runway width 197 ft
Runway elevation 8 ft Runway displaced threshold 0 ft Runway heading 66
Runway 25L Runway length 8727 ft Runway width 197 ft
Runway elevation 8 ft Runway displaced threshold 0 ft Runway heading 246

 AIRPORT FREQUENCIES
Type APP Name APP Frequency 119.1 MHZ
Type ATIS Name ATIS Frequency 118.65 MHZ
Type CLD Name CLNC DEL Frequency 121.8 MHZ
Type GND Name GND Frequency 121.65 MHZ
Type TWR Name TWR Frequency 118.1 MHZ

 AIRPORT NEAR NAVIGATION AIDS
Type VOR-DME Name Barcelona Frequency 116700 KHZ
Type VOR-DME Name El Prat Frequency 114300 KHZ
Type VOR-DME Name Sabadell Frequency 112000 KHZ
Type NDB Name Villanueva Frequency 380 KHZ



Powered by Virtual Airlines Manager [v2.6.2]